Paphos, Cyprus

9:57 AM EEST on August 27, 2016 (GMT +0300)
Paphos | | Change Station

Elev 26 ft 34.72 °N, 32.48 °E | Updated 27 minutes ago

Partly Cloudy
Partly Cloudy
84 °F
Feels Like 90 °F
N
6
Wind Variable Wind from WSW

Today
High -- | Low -- °F
--% Chance of Precip.
Yesterday
High -- | Low -- °F
Precip. -- in
Pressure 29.92 in
Visibility 6.2 miles
Clouds Few 2000 ft
Heat Index 90 °F
Dew Point 72 °F
Humidity 66%
Rainfall 0.00 in
Snow Depth Not available.
6:19 AM 7:22 PM
Waning Crescent, 27% visible
METAR LCPH 270630Z 24005KT 210V290 9999 FEW020 29/22 Q1013
Pressure 29.92 in
Visibility 6.2 miles
Clouds Few 2000 ft
Heat Index 90 °F
Dew Point 72 °F
Humidity 66%
Rainfall 0.00 in
Snow Depth Not available.
6:19 AM 7:22 PM
Waning Crescent, 27% visible
METAR LCPH 270630Z 24005KT 210V290 9999 FEW020 29/22 Q1013

10-Day Weather Forecast

×

Almanac

Astronomy

Aug. 27, 2016 Rise Set
Actual Time
Civil Twilight
Nautical Twilight
Astronomical Twilight
Moon
Length of Visible Light
Length of Day
Tomorrow will be .
, % of the Moon is Illuminated

Today's Extremes

Country Highs Country Lows

Community

WunderPhotos

Upload Photos

1,935,303 photos uploaded!

WunderBlog® & News

Nearby

Air Quality

  Air Quality AQ Index Pollutant
Not available.

Snow Depth

Station Depth Elevation

Earthquake Activity

City Distance Mag. Time & Date
Minimum magnitude displayed is 2.5.

Coastal Water Temperatures

Place Temperature

Stations

Nearby Weather Stations

Station Location Temp. Windchill Dew Point Humidity Wind Precip. Elev Updated Type